Time;durP1;ratioP1;P1;durP2;ratioP2;P2;SDS_P1;SDS_P2;PMS_P1;PMS_P2;Temp;Humidity;BMP_temperature;BMP_pressure;BME280_temperature;BME280_humidity;BME280_pressure;Samples;Min_cycle;Max_cycle;Signal;HPM_P1;HPM_P2
2023/12/14 00:00:30;;;;;;;2.77;1.80;;;22.10;63.80;;;;;;5051774;28;20856;-82
2023/12/14 00:02:57;;;;;;;1.80;1.70;;;22.20;63.90;;;;;;5052217;28;20477;-89
2023/12/14 00:05:24;;;;;;;1.40;1.30;;;22.10;63.80;;;;;;5052128;28;20455;-92
2023/12/14 00:07:51;;;;;;;2.37;1.70;;;22.20;63.90;;;;;;5052262;28;20445;-90
2023/12/14 00:10:18;;;;;;;1.57;1.47;;;22.10;63.70;;;;;;5052103;28;20447;-88
2023/12/14 00:12:45;;;;;;;1.63;1.40;;;22.00;63.70;;;;;;5052101;28;20955;-89
2023/12/14 00:15:12;;;;;;;3.10;1.60;;;22.00;63.60;;;;;;5052006;28;20433;-85
2023/12/14 00:17:40;;;;;;;1.60;1.50;;;22.00;63.70;;;;;;5052206;28;20433;-86
2023/12/14 00:20:08;;;;;;;1.40;1.30;;;22.00;63.70;;;;;;5052138;28;20483;-87
2023/12/14 00:22:35;;;;;;;1.53;1.30;;;22.00;63.00;;;;;;5052278;28;20815;-85
2023/12/14 00:25:02;;;;;;;1.80;1.60;;;22.10;63.80;;;;;;5051946;28;20444;-91
2023/12/14 00:27:29;;;;;;;1.60;1.50;;;22.00;63.80;;;;;;5051921;28;20805;-91
2023/12/14 00:29:56;;;;;;;1.90;1.70;;;22.00;63.80;;;;;;5052173;28;20830;-85
2023/12/14 00:32:22;;;;;;;1.83;1.73;;;22.00;63.80;;;;;;5051943;28;20946;-93
2023/12/14 00:34:50;;;;;;;1.97;1.47;;;22.00;63.80;;;;;;5052275;28;20453;-88
2023/12/14 00:37:17;;;;;;;1.60;1.50;;;21.90;63.70;;;;;;5055507;28;20452;-93
2023/12/14 00:39:44;;;;;;;1.50;1.40;;;21.90;63.70;;;;;;5055517;28;20485;-85
2023/12/14 00:42:10;;;;;;;2.33;1.87;;;21.90;63.60;;;;;;5055368;28;20555;-84
2023/12/14 00:44:37;;;;;;;2.47;1.33;;;21.90;63.70;;;;;;5055570;28;20468;-89
2023/12/14 00:47:04;;;;;;;1.70;1.40;;;21.90;63.70;;;;;;5055333;28;20452;-93
2023/12/14 00:49:31;;;;;;;2.70;1.40;;;21.90;63.80;;;;;;5055301;28;20447;-92
2023/12/14 00:51:59;;;;;;;1.77;1.60;;;21.90;63.70;;;;;;5055482;28;20433;-91
2023/12/14 00:54:26;;;;;;;1.57;1.47;;;21.90;63.80;;;;;;5055531;28;20428;-86
2023/12/14 00:56:52;;;;;;;1.30;1.20;;;22.00;63.80;;;;;;5055266;28;20483;-86
2023/12/14 00:59:19;;;;;;;1.40;1.20;;;21.90;63.70;;;;;;5055034;28;20949;-92
2023/12/14 01:01:46;;;;;;;2.03;1.63;;;21.90;63.70;;;;;;5055051;28;20439;-88
2023/12/14 01:04:13;;;;;;;1.50;1.13;;;21.90;63.70;;;;;;5055101;28;20786;-83
2023/12/14 01:06:40;;;;;;;1.33;1.20;;;21.90;63.80;;;;;;5055029;28;20433;-92
2023/12/14 01:09:08;;;;;;;1.47;1.37;;;21.80;63.70;;;;;;5055107;28;20445;-91
2023/12/14 01:11:35;;;;;;;1.20;1.10;;;21.80;63.70;;;;;;5054847;28;20905;-93
2023/12/14 01:14:02;;;;;;;1.30;1.20;;;21.80;63.70;;;;;;5054773;28;20441;-87
2023/12/14 01:16:28;;;;;;;1.70;1.60;;;21.80;63.70;;;;;;5055038;28;20440;-90
2023/12/14 01:18:55;;;;;;;1.60;1.40;;;21.80;63.70;;;;;;5054929;28;20441;-92
2023/12/14 01:21:22;;;;;;;2.07;1.53;;;21.80;63.70;;;;;;5054599;28;20488;-92
2023/12/14 01:23:49;;;;;;;1.37;1.13;;;21.80;63.70;;;;;;5054809;28;20452;-82
2023/12/14 01:26:18;;;;;;;1.40;1.30;;;21.80;63.80;;;;;;5055022;28;20452;-91
2023/12/14 01:28:45;;;;;;;1.60;1.50;;;21.80;63.70;;;;;;5055014;28;20531;-91
2023/12/14 01:31:11;;;;;;;1.90;1.60;;;21.80;63.70;;;;;;5054685;28;20437;-82
2023/12/14 01:33:38;;;;;;;1.30;1.20;;;21.80;63.80;;;;;;5054963;28;20438;-93
2023/12/14 01:36:05;;;;;;;1.57;1.40;;;21.80;63.80;;;;;;5054620;28;20441;-83
2023/12/14 01:38:32;;;;;;;1.87;1.60;;;21.80;63.80;;;;;;5054388;28;20447;-82
2023/12/14 01:40:59;;;;;;;1.50;1.37;;;21.80;63.70;;;;;;5054467;28;20859;-81
2023/12/14 01:43:27;;;;;;;1.60;1.33;;;21.80;63.80;;;;;;5054585;28;20441;-84
2023/12/14 01:45:54;;;;;;;1.30;1.10;;;21.80;63.70;;;;;;5054854;28;20434;-86
2023/12/14 01:48:21;;;;;;;1.50;1.13;;;21.80;63.60;;;;;;5057961;28;20479;-82
2023/12/14 01:50:48;;;;;;;1.40;1.30;;;21.80;63.60;;;;;;5065270;28;20984;-84
2023/12/14 01:53:15;;;;;;;1.50;1.23;;;21.80;63.50;;;;;;5054163;28;20449;-84
2023/12/14 01:55:41;;;;;;;1.30;1.10;;;21.80;63.40;;;;;;5054136;28;20965;-85
2023/12/14 01:58:08;;;;;;;1.60;1.50;;;21.80;63.40;;;;;;5053922;28;20472;-82
2023/12/14 02:00:42;;;;;;;1.50;1.40;;;21.80;63.40;;;;;;5054042;28;20493;-92
2023/12/14 02:03:08;;;;;;;2.17;1.50;;;21.80;63.40;;;;;;5054050;28;20875;-83
2023/12/14 02:05:35;;;;;;;1.93;1.80;;;21.80;63.40;;;;;;5053761;28;20445;-87
2023/12/14 02:08:02;;;;;;;1.20;1.10;;;21.80;63.40;;;;;;5054037;28;20451;-91
2023/12/14 02:10:29;;;;;;;1.33;1.23;;;21.80;63.30;;;;;;5053953;28;20812;-86
2023/12/14 02:12:55;;;;;;;1.60;1.50;;;21.90;63.50;;;;;;5053859;28;20430;-93
2023/12/14 02:15:22;;;;;;;1.43;1.33;;;21.80;63.30;;;;;;5053697;28;20928;-86
2023/12/14 02:17:50;;;;;;;1.60;1.43;;;21.90;63.40;;;;;;5053580;28;20441;-93
2023/12/14 02:20:17;;;;;;;1.70;1.40;;;21.90;63.30;;;;;;5053611;28;20491;-90
2023/12/14 02:22:51;;;;;;;1.40;1.30;;;21.90;63.30;;;;;;5053706;28;20812;-90
2023/12/14 02:25:18;;;;;;;1.30;1.20;;;21.90;63.20;;;;;;5053194;28;20455;-93
2023/12/14 02:27:45;;;;;;;1.50;1.40;;;21.90;63.30;;;;;;5053065;28;20480;-86
2023/12/14 02:30:13;;;;;;;1.30;1.10;;;21.90;63.30;;;;;;5053008;28;20447;-90
2023/12/14 02:32:40;;;;;;;1.90;1.77;;;21.90;63.30;;;;;;5052940;28;20917;-94
2023/12/14 02:35:08;;;;;;;1.47;1.37;;;21.90;63.30;;;;;;5053194;28;20433;-85
2023/12/14 02:37:37;;;;;;;1.20;1.10;;;21.90;63.30;;;;;;5053225;28;20444;-88
2023/12/14 02:40:06;;;;;;;1.30;1.20;;;21.90;63.20;;;;;;5053136;28;20502;-90
2023/12/14 02:42:33;;;;;;;1.43;1.33;;;21.90;63.20;;;;;;5053122;28;20525;-92
2023/12/14 02:45:01;;;;;;;1.20;1.10;;;21.90;63.20;;;;;;5053254;28;20441;-92
2023/12/14 02:47:28;;;;;;;1.27;1.00;;;21.90;63.20;;;;;;5053581;28;20774;-85
2023/12/14 02:49:55;;;;;;;1.40;1.30;;;21.90;63.10;;;;;;5052625;28;20504;-92
2023/12/14 02:52:22;;;;;;;1.77;1.50;;;22.00;63.20;;;;;;5052949;28;20452;-83
2023/12/14 02:54:49;;;;;;;1.30;1.10;;;21.90;63.00;;;;;;5052923;28;20444;-88
2023/12/14 02:57:17;;;;;;;1.20;1.10;;;21.90;63.10;;;;;;5052947;28;20471;-84
2023/12/14 02:59:44;;;;;;;1.70;1.27;;;21.90;63.00;;;;;;5052606;28;20537;-87
2023/12/14 03:02:10;;;;;;;1.40;1.20;;;21.90;63.00;;;;;;5052967;28;20445;-85
2023/12/14 03:04:38;;;;;;;1.20;1.10;;;21.90;63.00;;;;;;5052886;28;20440;-83
2023/12/14 03:07:05;;;;;;;1.23;1.07;;;21.90;63.00;;;;;;5052822;28;20445;-82
2023/12/14 03:09:32;;;;;;;1.57;1.10;;;21.90;63.00;;;;;;5052912;28;20437;-82
2023/12/14 03:12:00;;;;;;;1.20;1.10;;;21.90;63.00;;;;;;5052799;28;20812;-88
2023/12/14 03:14:33;;;;;;;1.40;1.30;;;22.00;63.10;;;;;;5052672;28;20544;-92
2023/12/14 03:17:00;;;;;;;1.20;1.07;;;21.90;63.10;;;;;;5052786;28;20433;-92
2023/12/14 03:19:27;;;;;;;1.63;1.17;;;21.90;63.00;;;;;;5052597;28;20437;-91
2023/12/14 03:21:53;;;;;;;1.60;1.30;;;21.90;63.10;;;;;;5052417;28;20492;-89
2023/12/14 03:24:20;;;;;;;1.70;1.37;;;21.90;63.10;;;;;;5052607;28;20445;-93
2023/12/14 03:26:47;;;;;;;1.40;1.10;;;21.90;63.00;;;;;;5052480;28;20480;-81
2023/12/14 03:29:14;;;;;;;1.50;1.40;;;21.90;63.00;;;;;;5052480;28;20448;-86
2023/12/14 03:31:42;;;;;;;1.33;1.10;;;21.90;63.00;;;;;;5052620;28;20437;-91
2023/12/14 03:34:09;;;;;;;1.47;1.37;;;21.90;63.00;;;;;;5052702;28;20448;-93
2023/12/14 03:36:35;;;;;;;1.10;1.00;;;21.90;63.00;;;;;;5052543;28;20441;-93
2023/12/14 03:39:02;;;;;;;1.37;1.23;;;21.90;63.00;;;;;;5052521;28;20441;-84
2023/12/14 03:41:29;;;;;;;1.33;1.23;;;21.90;63.00;;;;;;5052514;28;20485;-82
2023/12/14 03:43:56;;;;;;;1.60;1.20;;;21.90;62.80;;;;;;5052403;28;20449;-86
2023/12/14 03:46:23;;;;;;;1.33;1.23;;;22.00;62.90;;;;;;5052365;28;20448;-86
2023/12/14 03:48:51;;;;;;;1.30;1.00;;;21.90;62.80;;;;;;5052514;28;20444;-85
2023/12/14 03:51:19;;;;;;;1.30;1.20;;;21.90;63.70;;;;;;5054835;28;20482;-87
2023/12/14 03:53:46;;;;;;;1.50;1.40;;;21.90;63.70;;;;;;5069764;28;20452;-82
2023/12/14 03:56:13;;;;;;;1.33;1.17;;;21.90;62.80;;;;;;5070479;28;20456;-81
2023/12/14 03:58:40;;;;;;;1.30;1.03;;;21.90;63.60;;;;;;5063860;28;20919;-81
2023/12/14 04:01:07;;;;;;;1.10;1.00;;;21.90;62.70;;;;;;5061478;28;20488;-82
2023/12/14 04:03:33;;;;;;;1.50;1.20;;;21.90;62.80;;;;;;5071596;28;20485;-81
2023/12/14 04:06:01;;;;;;;1.40;1.10;;;21.90;62.70;;;;;;5068321;28;20448;-82
2023/12/14 04:08:28;;;;;;;1.63;1.47;;;21.90;62.70;;;;;;5070338;28;20444;-83
2023/12/14 04:10:55;;;;;;;1.10;0.90;;;21.90;62.80;;;;;;5070788;28;20440;-81
2023/12/14 04:13:22;;;;;;;1.30;1.10;;;21.90;62.70;;;;;;5066571;28;20448;-82
2023/12/14 04:15:48;;;;;;;1.20;1.07;;;21.90;62.70;;;;;;5073050;28;20438;-86
2023/12/14 04:18:15;;;;;;;1.40;1.20;;;21.90;62.70;;;;;;5075071;28;20452;-85
2023/12/14 04:20:42;;;;;;;1.20;1.10;;;21.90;62.70;;;;;;5074522;28;20475;-81
2023/12/14 04:23:10;;;;;;;1.20;1.00;;;21.90;62.60;;;;;;5074994;28;20458;-81
2023/12/14 04:25:37;;;;;;;1.53;1.10;;;21.90;62.70;;;;;;5074343;28;20440;-83
2023/12/14 04:28:04;;;;;;;1.30;1.20;;;21.90;62.80;;;;;;5074275;28;20475;-81
2023/12/14 04:30:31;;;;;;;1.10;0.83;;;21.90;62.80;;;;;;5072308;28;20460;-81
2023/12/14 04:32:57;;;;;;;1.10;0.90;;;21.90;62.70;;;;;;5074478;28;20448;-81
2023/12/14 04:35:24;;;;;;;1.20;1.10;;;21.90;62.70;;;;;;5074234;28;20955;-81
2023/12/14 04:37:51;;;;;;;1.00;0.80;;;21.90;62.70;;;;;;5075046;28;20955;-81
2023/12/14 04:40:19;;;;;;;1.20;1.00;;;21.90;62.70;;;;;;5075432;28;20821;-82
2023/12/14 04:42:46;;;;;;;1.23;1.03;;;21.90;62.70;;;;;;5074635;28;20452;-82
2023/12/14 04:45:13;;;;;;;1.10;0.90;;;21.90;62.70;;;;;;5074326;28;20802;-81
2023/12/14 04:47:39;;;;;;;1.20;1.03;;;21.90;62.70;;;;;;5075017;28;20530;-82
2023/12/14 04:50:07;;;;;;;1.27;0.90;;;21.90;62.60;;;;;;5074037;28;20998;-81
2023/12/14 04:52:34;;;;;;;1.23;1.10;;;21.90;62.70;;;;;;5074041;28;20444;-81
2023/12/14 04:55:00;;;;;;;1.20;0.90;;;21.90;62.60;;;;;;5073827;28;20823;-82
2023/12/14 04:57:28;;;;;;;1.20;1.00;;;21.90;62.70;;;;;;5073331;28;20468;-82
2023/12/14 04:59:55;;;;;;;1.13;1.00;;;21.90;62.60;;;;;;5073782;28;20436;-81
2023/12/14 05:02:22;;;;;;;1.23;1.07;;;21.90;62.50;;;;;;5073418;28;20499;-88
2023/12/14 05:04:49;;;;;;;1.33;1.20;;;22.00;62.70;;;;;;5072862;28;20440;-81
2023/12/14 05:07:16;;;;;;;1.30;1.20;;;21.90;62.40;;;;;;5072349;28;20428;-81
2023/12/14 05:09:43;;;;;;;1.20;1.00;;;21.90;62.40;;;;;;5072416;28;20793;-81
2023/12/14 05:12:09;;;;;;;1.23;1.07;;;21.90;62.30;;;;;;5072308;28;20444;-81
2023/12/14 05:14:38;;;;;;;1.20;1.00;;;21.90;62.30;;;;;;5072236;28;20443;-81
2023/12/14 05:17:05;;;;;;;1.30;0.90;;;22.00;62.50;;;;;;5072134;28;20814;-81
2023/12/14 05:19:33;;;;;;;1.10;0.90;;;22.00;62.40;;;;;;5073312;28;20436;-81
2023/12/14 05:22:00;;;;;;;1.30;1.00;;;22.00;62.40;;;;;;5070519;28;20974;-81
2023/12/14 05:24:27;;;;;;;1.20;1.10;;;22.00;62.30;;;;;;5073290;28;20806;-81
2023/12/14 05:26:54;;;;;;;1.20;1.07;;;22.00;62.30;;;;;;5073510;28;20475;-81
2023/12/14 05:29:21;;;;;;;1.30;1.10;;;22.00;62.30;;;;;;5072328;28;20444;-81
2023/12/14 05:31:49;;;;;;;1.13;1.03;;;22.00;62.20;;;;;;5073062;28;20488;-81
2023/12/14 05:34:17;;;;;;;1.10;0.90;;;22.00;62.20;;;;;;5072752;28;20533;-81
2023/12/14 05:36:44;;;;;;;1.10;1.00;;;22.00;62.10;;;;;;5072942;28;20448;-81
2023/12/14 05:39:11;;;;;;;1.40;1.10;;;22.00;62.20;;;;;;5072371;28;20445;-81
2023/12/14 05:41:41;;;;;;;1.27;1.10;;;22.00;62.20;;;;;;5072023;28;20491;-81
2023/12/14 05:44:08;;;;;;;1.30;1.00;;;22.00;62.10;;;;;;5070988;28;20449;-81
2023/12/14 05:46:35;;;;;;;1.10;1.00;;;22.00;62.10;;;;;;5073164;28;20440;-82
2023/12/14 05:49:03;;;;;;;1.20;1.00;;;22.00;62.00;;;;;;5072276;28;21005;-82
2023/12/14 05:51:31;;;;;;;1.17;0.93;;;22.00;62.00;;;;;;5036501;28;1046980;-81
2023/12/14 05:53:58;;;;;;;1.10;1.00;;;22.10;62.10;;;;;;5073409;28;20821;-81
2023/12/14 05:56:26;;;;;;;1.10;0.90;;;22.10;62.10;;;;;;5074095;28;20460;-81
2023/12/14 05:58:52;;;;;;;1.20;1.00;;;22.10;62.00;;;;;;5073231;28;21006;-81
2023/12/14 06:01:19;;;;;;;1.20;1.07;;;22.10;62.00;;;;;;5070968;28;20483;-81
2023/12/14 06:03:46;;;;;;;1.67;1.30;;;22.10;62.00;;;;;;5073281;28;20539;-80
2023/12/14 06:06:15;;;;;;;1.10;1.00;;;22.10;61.90;;;;;;5068510;28;20440;-81
2023/12/14 06:08:42;;;;;;;1.10;0.80;;;22.10;61.90;;;;;;5069867;28;20444;-81
2023/12/14 06:11:09;;;;;;;1.20;1.03;;;22.10;61.90;;;;;;5071131;28;20441;-84
2023/12/14 06:13:36;;;;;;;1.20;0.90;;;22.10;61.90;;;;;;5070191;28;20943;-81
2023/12/14 06:16:03;;;;;;;1.50;1.13;;;22.00;61.80;;;;;;5061454;28;20444;-81
2023/12/14 06:18:30;;;;;;;1.40;1.30;;;22.10;61.90;;;;;;5069470;28;20457;-90
2023/12/14 06:20:57;;;;;;;1.30;1.17;;;22.10;61.90;;;;;;5068064;28;20455;-86
2023/12/14 06:23:26;;;;;;;1.10;0.90;;;22.10;61.80;;;;;;5064094;28;20448;-82
2023/12/14 06:25:53;;;;;;;1.27;1.17;;;22.10;61.90;;;;;;5070427;28;20543;-82
2023/12/14 06:28:21;;;;;;;1.10;1.00;;;22.10;61.90;;;;;;5070322;28;20436;-82
2023/12/14 06:30:48;;;;;;;1.40;1.20;;;22.10;61.90;;;;;;5067069;28;20502;-85
2023/12/14 06:33:15;;;;;;;1.00;0.80;;;22.10;61.80;;;;;;5074710;28;20447;-94
2023/12/14 06:35:41;;;;;;;2.80;1.00;;;22.10;61.80;;;;;;5063821;28;20524;-86
2023/12/14 06:38:08;;;;;;;1.10;1.00;;;22.10;60.40;;;;;;5072010;28;20436;-83
2023/12/14 06:40:36;;;;;;;1.10;0.93;;;22.10;59.90;;;;;;5072790;28;20447;-85
2023/12/14 06:43:05;;;;;;;2.50;1.07;;;22.10;59.90;;;;;;5073012;28;20698;-92
2023/12/14 06:45:31;;;;;;;1.10;1.00;;;22.10;60.00;;;;;;5073068;28;20449;-85
2023/12/14 06:47:58;;;;;;;1.20;1.00;;;22.10;60.00;;;;;;5061563;28;20440;-86
2023/12/14 06:50:26;;;;;;;1.27;1.17;;;22.10;60.10;;;;;;5071486;28;20994;-89
2023/12/14 06:52:53;;;;;;;1.13;0.83;;;22.10;60.00;;;;;;5053739;28;20458;-92
2023/12/14 06:55:20;;;;;;;2.40;2.20;;;22.00;60.00;;;;;;5073071;28;20455;-93
2023/12/14 06:57:48;;;;;;;1.57;1.10;;;22.00;59.00;;;;;;5073573;28;20456;-92
2023/12/14 07:00:18;;;;;;;1.30;1.03;;;22.00;60.70;;;;;;5073007;28;20452;-85
2023/12/14 07:02:45;;;;;;;1.30;1.10;;;21.90;61.10;;;;;;5072717;28;21017;-88
2023/12/14 07:05:12;;;;;;;1.17;0.97;;;22.00;61.30;;;;;;5063597;28;20444;-81
2023/12/14 07:07:38;;;;;;;1.47;1.30;;;22.00;61.40;;;;;;5072627;28;20440;-81
2023/12/14 07:10:06;;;;;;;1.17;0.87;;;22.00;61.30;;;;;;5072932;28;20447;-90
2023/12/14 07:12:33;;;;;;;1.40;1.30;;;22.00;61.30;;;;;;5071488;28;20454;-83
2023/12/14 07:15:01;;;;;;;1.20;1.10;;;22.00;61.20;;;;;;5071732;28;20491;-83
2023/12/14 07:17:28;;;;;;;1.50;1.23;;;22.00;61.10;;;;;;5071672;28;20440;-82
2023/12/14 07:19:54;;;;;;;1.80;1.23;;;22.00;61.00;;;;;;5071565;28;20459;-81
2023/12/14 07:22:21;;;;;;;1.67;1.00;;;22.10;61.10;;;;;;5071166;28;20479;-83
2023/12/14 07:24:48;;;;;;;1.67;1.00;;;22.10;61.30;;;;;;5071617;28;20451;-83
2023/12/14 07:27:15;;;;;;;1.60;1.10;;;22.10;61.20;;;;;;5072200;28;20452;-80
2023/12/14 07:29:41;;;;;;;1.30;1.10;;;22.10;61.40;;;;;;5072673;28;20554;-81
2023/12/14 07:32:09;;;;;;;4.20;1.00;;;22.10;61.40;;;;;;5072644;28;20788;-83
2023/12/14 07:34:36;;;;;;;1.40;1.30;;;22.10;61.60;;;;;;5072552;28;20810;-83
2023/12/14 07:37:03;;;;;;;1.63;0.97;;;22.10;61.80;;;;;;5072227;28;21334;-85
2023/12/14 07:39:30;;;;;;;1.20;1.00;;;22.10;60.90;;;;;;5072442;28;20449;-81
2023/12/14 07:41:56;;;;;;;1.13;1.03;;;22.20;62.00;;;;;;5072404;28;20490;-80
2023/12/14 07:44:25;;;;;;;1.73;1.10;;;22.20;61.50;;;;;;5072012;28;20607;-83
2023/12/14 07:46:51;;;;;;;1.47;1.37;;;22.20;61.60;;;;;;5071238;28;20457;-84
2023/12/14 07:49:20;;;;;;;1.43;1.10;;;22.20;61.50;;;;;;5072517;28;20440;-84
2023/12/14 07:51:47;;;;;;;1.30;1.20;;;22.20;61.70;;;;;;5063365;28;20455;-87
2023/12/14 07:54:14;;;;;;;1.40;1.00;;;22.20;61.80;;;;;;5072732;28;20432;-90
2023/12/14 07:56:41;;;;;;;3.83;1.07;;;22.20;61.80;;;;;;5073120;28;20573;-87
2023/12/14 07:59:09;;;;;;;10.10;1.20;;;22.20;61.20;;;;;;5072510;28;20444;-87
2023/12/14 08:01:36;;;;;;;2.47;1.10;;;22.20;61.70;;;;;;5072408;28;20567;-87
2023/12/14 08:04:03;;;;;;;2.07;1.00;;;22.20;61.80;;;;;;5072277;28;20515;-87
2023/12/14 08:06:31;;;;;;;1.73;1.20;;;22.20;61.60;;;;;;5072458;28;20830;-89
2023/12/14 08:08:58;;;;;;;1.20;1.00;;;22.20;61.80;;;;;;5072364;28;20440;-87
2023/12/14 08:11:25;;;;;;;1.33;1.23;;;22.20;61.90;;;;;;5072598;28;20494;-87
2023/12/14 08:13:52;;;;;;;2.70;0.90;;;22.20;62.00;;;;;;5073946;28;20440;-90
2023/12/14 08:16:19;;;;;;;1.00;0.80;;;22.20;62.00;;;;;;5077348;28;20444;-86
2023/12/14 08:18:48;;;;;;;1.30;1.10;;;22.20;62.00;;;;;;5072885;28;20527;-87
2023/12/14 08:21:14;;;;;;;1.10;1.00;;;22.20;62.00;;;;;;5072583;28;20890;-90
2023/12/14 08:23:43;;;;;;;2.23;1.10;;;22.20;61.80;;;;;;5073101;28;20559;-87
2023/12/14 08:26:12;;;;;;;1.33;1.03;;;22.30;61.90;;;;;;5071549;28;20468;-85
2023/12/14 08:28:39;;;;;;;3.30;1.20;;;22.40;62.00;;;;;;5072494;28;20441;-87
2023/12/14 08:31:06;;;;;;;1.57;1.33;;;22.30;61.90;;;;;;5072769;28;20441;-85
2023/12/14 08:33:33;;;;;;;1.83;0.90;;;22.30;61.90;;;;;;5072604;28;20452;-93
2023/12/14 08:36:00;;;;;;;1.30;1.20;;;22.30;61.90;;;;;;5074906;28;20448;-92
2023/12/14 08:38:27;;;;;;;1.60;1.20;;;22.30;60.20;;;;;;5072870;28;20437;-92
2023/12/14 08:40:55;;;;;;;2.00;1.20;;;22.30;59.80;;;;;;5072788;28;20947;-91
2023/12/14 08:43:22;;;;;;;3.93;1.20;;;22.30;59.70;;;;;;5072541;28;20483;-86
2023/12/14 08:45:49;;;;;;;3.10;1.50;;;22.20;59.90;;;;;;5072414;28;20446;-86
2023/12/14 08:48:15;;;;;;;1.77;1.10;;;22.20;61.20;;;;;;5071876;28;20436;-86
2023/12/14 08:50:42;;;;;;;3.23;1.27;;;22.20;61.70;;;;;;5071770;28;20488;-86
2023/12/14 08:53:09;;;;;;;3.67;3.37;;;22.20;61.80;;;;;;5072087;28;20931;-86
2023/12/14 08:55:36;;;;;;;3.00;2.80;;;22.20;58.10;;;;;;5072276;28;20548;-86
2023/12/14 08:58:04;;;;;;;2.03;1.90;;;22.00;58.60;;;;;;5076025;28;20439;-86
2023/12/14 09:00:31;;;;;;;2.07;1.43;;;22.00;60.20;;;;;;5073353;28;20437;-85
2023/12/14 09:02:58;;;;;;;1.63;1.40;;;22.00;60.70;;;;;;5075770;28;20998;-89
2023/12/14 09:05:26;;;;;;;3.03;1.30;;;22.10;61.40;;;;;;5075934;28;20527;-85
2023/12/14 09:07:55;;;;;;;6.20;1.60;;;22.00;61.20;;;;;;5076232;28;20444;-86
2023/12/14 09:10:22;;;;;;;1.47;1.27;;;22.10;61.60;;;;;;5076818;28;20444;-85
2023/12/14 09:12:50;;;;;;;2.80;1.47;;;22.10;61.40;;;;;;5076674;28;20436;-89
2023/12/14 09:15:18;;;;;;;1.40;1.17;;;22.10;61.30;;;;;;5076970;28;20490;-89
2023/12/14 09:17:45;;;;;;;1.47;1.10;;;22.20;60.80;;;;;;5075848;28;20443;-86
2023/12/14 09:20:12;;;;;;;2.50;1.93;;;22.20;61.70;;;;;;5059187;28;20442;-85
2023/12/14 09:22:39;;;;;;;2.70;1.30;;;22.20;61.50;;;;;;5055838;28;20576;-85
2023/12/14 09:25:09;;;;;;;3.90;1.90;;;22.20;61.50;;;;;;5055933;28;20437;-84
2023/12/14 09:27:36;;;;;;;1.40;1.10;;;22.20;61.70;;;;;;5071023;28;20444;-96
2023/12/14 09:30:04;;;;;;;1.20;1.03;;;22.30;61.80;;;;;;5085416;28;20444;-95
2023/12/14 09:32:32;;;;;;;2.23;1.40;;;22.30;61.70;;;;;;5084795;28;20449;-96
2023/12/14 09:34:59;;;;;;;1.60;1.17;;;22.30;61.80;;;;;;5083778;28;20444;-96
2023/12/14 09:37:26;;;;;;;2.77;1.43;;;22.30;61.60;;;;;;5083919;28;20440;-95
2023/12/14 09:39:53;;;;;;;2.53;1.60;;;22.30;61.70;;;;;;5082314;28;20445;-95
2023/12/14 09:42:22;;;;;;;4.33;3.03;;;22.30;61.80;;;;;;5083548;28;20518;-94
2023/12/14 09:44:49;;;;;;;2.53;1.60;;;22.30;61.50;;;;;;5083814;28;20440;-96
2023/12/14 09:47:16;;;;;;;2.47;1.03;;;22.30;62.00;;;;;;5080991;28;20453;-96
2023/12/14 09:49:46;;;;;;;1.40;1.20;;;22.30;61.20;;;;;;5088257;28;20468;-96
2023/12/14 09:52:13;;;;;;;3.20;1.40;;;22.30;62.40;;;;;;5088202;28;20437;-96
2023/12/14 09:54:41;;;;;;;1.87;1.40;;;22.30;62.00;;;;;;5084528;28;20513;-93
2023/12/14 09:57:20;;;;;;;3.50;2.67;;;22.30;62.00;;;;;;5090492;28;20490;-96
2023/12/14 09:59:52;;;;;;;1.83;1.67;;;22.30;61.70;;;;;;5092749;28;20431;-90
2023/12/14 10:02:19;;;;;;;4.40;1.63;;;22.30;61.90;;;;;;5088693;28;20472;-90
2023/12/14 10:04:48;;;;;;;4.80;1.93;;;22.30;62.10;;;;;;5085999;28;20440;-91
2023/12/14 10:07:16;;;;;;;3.97;1.70;;;22.30;61.90;;;;;;5083842;28;20437;-86
2023/12/14 10:09:43;;;;;;;2.30;1.43;;;22.30;61.90;;;;;;5075988;28;20519;-86
2023/12/14 10:12:10;;;;;;;3.90;1.83;;;22.30;61.70;;;;;;5075441;28;20448;-85
2023/12/14 10:14:38;;;;;;;10.83;1.87;;;22.30;61.00;;;;;;5075661;28;20447;-91
2023/12/14 10:17:17;;;;;;;2.23;1.40;;;22.40;61.60;;;;;;5074511;28;20535;-86
2023/12/14 10:19:45;;;;;;;2.33;1.50;;;22.40;61.10;;;;;;5074672;28;20450;-86
2023/12/14 10:22:14;;;;;;;4.03;2.03;;;22.40;61.50;;;;;;5075872;28;20443;-86
2023/12/14 10:24:44;;;;;;;6.20;2.00;;;22.40;61.70;;;;;;5074930;28;20444;-93
2023/12/14 10:27:11;;;;;;;3.90;1.50;;;22.40;61.90;;;;;;5075659;28;20557;-86
2023/12/14 10:29:39;;;;;;;5.67;1.83;;;22.30;61.80;;;;;;5075909;28;20437;-85
2023/12/14 10:32:06;;;;;;;2.53;1.93;;;22.30;61.80;;;;;;5076239;28;20453;-85
2023/12/14 10:34:33;;;;;;;2.47;1.50;;;22.30;61.50;;;;;;5075901;28;20451;-86
2023/12/14 10:37:00;;;;;;;2.70;1.87;;;22.40;61.70;;;;;;5074573;28;20436;-86
2023/12/14 10:39:30;;;;;;;2.27;1.70;;;22.40;61.70;;;;;;5074652;28;20436;-85
2023/12/14 10:41:59;;;;;;;3.00;1.63;;;22.40;61.50;;;;;;5074877;28;20443;-86
2023/12/14 10:44:28;;;;;;;2.77;1.87;;;22.40;61.50;;;;;;5076584;28;20484;-86
2023/12/14 10:46:56;;;;;;;1.70;1.53;;;22.40;61.50;;;;;;5078644;28;20852;-90
2023/12/14 10:49:25;;;;;;;2.93;1.70;;;22.40;61.50;;;;;;5077057;28;20440;-86
2023/12/14 10:51:54;;;;;;;1.90;1.70;;;22.40;61.50;;;;;;5078568;28;20428;-92
2023/12/14 10:54:21;;;;;;;2.40;1.83;;;22.40;61.50;;;;;;5077616;28;20523;-86
2023/12/14 10:56:50;;;;;;;2.80;1.93;;;22.40;61.40;;;;;;5078421;28;20991;-86
2023/12/14 10:59:17;;;;;;;1.60;1.50;;;22.40;61.50;;;;;;5077443;28;20528;-86
2023/12/14 11:01:44;;;;;;;1.80;1.50;;;22.40;62.30;;;;;;5075810;28;20489;-84
2023/12/14 11:04:14;;;;;;;2.80;1.77;;;22.40;61.50;;;;;;5076992;28;20494;-84
2023/12/14 11:06:46;;;;;;;1.33;1.23;;;22.40;61.00;;;;;;5076502;28;20428;-84
2023/12/14 11:09:15;;;;;;;2.70;1.33;;;22.40;61.40;;;;;;5074492;28;20965;-84
2023/12/14 11:11:44;;;;;;;2.23;1.87;;;22.40;61.30;;;;;;5075404;28;20931;-84
2023/12/14 11:14:13;;;;;;;1.97;1.70;;;22.40;61.40;;;;;;5075042;28;20436;-84
2023/12/14 11:16:46;;;;;;;1.60;1.50;;;22.40;61.60;;;;;;5074489;28;20443;-86
2023/12/14 11:19:28;;;;;;;3.60;2.20;;;22.40;60.90;;;;;;5074175;28;20571;-84
2023/12/14 11:22:15;;;;;;;1.80;1.60;;;22.50;61.70;;;;;;5073813;28;20440;-85
2023/12/14 11:24:53;;;;;;;2.57;1.90;;;22.50;61.70;;;;;;5076442;28;20561;-95
2023/12/14 11:27:26;;;;;;;2.60;2.50;;;22.50;61.80;;;;;;5073840;28;20435;-85
2023/12/14 11:29:54;;;;;;;3.10;2.90;;;22.50;61.40;;;;;;5073894;28;20479;-85
2023/12/14 11:32:21;;;;;;;3.37;3.10;;;22.50;61.90;;;;;;5073126;28;20924;-84
2023/12/14 11:34:48;;;;;;;3.10;2.90;;;22.50;61.10;;;;;;5073484;28;20444;-84
2023/12/14 11:37:15;;;;;;;3.10;2.90;;;22.50;61.80;;;;;;5073188;28;20451;-84
2023/12/14 11:39:43;;;;;;;3.33;3.13;;;22.40;61.90;;;;;;5073509;28;20436;-85
2023/12/14 11:42:10;;;;;;;3.33;3.13;;;22.40;62.00;;;;;;5073924;28;20440;-84
2023/12/14 11:44:38;;;;;;;4.03;3.63;;;22.40;62.00;;;;;;5073650;28;20484;-84
2023/12/14 11:47:06;;;;;;;3.87;3.47;;;22.40;62.10;;;;;;5073409;28;20504;-85
2023/12/14 11:49:33;;;;;;;4.30;3.90;;;22.40;62.20;;;;;;5072940;28;20504;-84
2023/12/14 11:52:04;;;;;;;4.13;3.73;;;22.40;62.10;;;;;;5073002;28;20436;-84
2023/12/14 11:54:31;;;;;;;3.67;3.37;;;22.40;62.30;;;;;;5073695;28;20443;-84
2023/12/14 11:56:58;;;;;;;3.83;3.53;;;22.40;62.20;;;;;;5072785;28;20547;-85
2023/12/14 11:59:27;;;;;;;3.50;3.20;;;22.40;62.30;;;;;;5072926;28;20435;-84
2023/12/14 12:01:58;;;;;;;3.07;2.87;;;22.40;62.40;;;;;;5073836;28;20447;-84
2023/12/14 12:04:26;;;;;;;3.87;3.47;;;22.40;62.50;;;;;;5073886;28;20484;-84
2023/12/14 12:07:01;;;;;;;3.27;3.07;;;22.40;62.00;;;;;;5074526;28;20475;-84
2023/12/14 12:09:39;;;;;;;3.33;3.13;;;22.40;62.30;;;;;;5073807;28;20527;-84
2023/12/14 12:12:10;;;;;;;3.80;3.50;;;22.40;62.30;;;;;;5074085;28;20439;-84
2023/12/14 12:14:37;;;;;;;3.40;3.10;;;22.50;62.60;;;;;;5073728;28;20444;-84
2023/12/14 12:17:05;;;;;;;3.27;2.90;;;22.50;62.60;;;;;;5073793;28;20443;-88
2023/12/14 12:19:34;;;;;;;2.80;2.60;;;22.50;62.50;;;;;;5074376;28;20445;-84
2023/12/14 12:22:01;;;;;;;3.20;3.00;;;22.50;62.40;;;;;;5075870;28;20433;-85
2023/12/14 12:24:28;;;;;;;3.53;3.27;;;22.50;62.70;;;;;;5073945;28;20480;-84
2023/12/14 12:26:55;;;;;;;5.83;3.13;;;22.50;62.50;;;;;;5073262;28;20459;-84
2023/12/14 12:29:21;;;;;;;6.20;3.70;;;22.50;62.50;;;;;;5073303;28;20444;-84
2023/12/14 12:31:48;;;;;;;3.40;3.20;;;22.50;62.60;;;;;;5075838;28;20444;-84
2023/12/14 12:59:19;;;;;;;3.60;2.97;;;22.40;61.10;;;;;;5053949;28;20460;-84
2023/12/14 13:01:47;;;;;;;5.30;3.43;;;22.30;62.00;;;;;;5037681;28;20521;-84
2023/12/14 13:04:21;;;;;;;4.07;3.57;;;22.30;62.10;;;;;;5037711;28;20493;-84
2023/12/14 13:06:48;;;;;;;4.87;3.03;;;22.40;61.20;;;;;;5039162;28;20496;-84
2023/12/14 13:09:16;;;;;;;5.73;3.27;;;22.40;61.40;;;;;;5041785;28;20439;-84
2023/12/14 13:11:43;;;;;;;3.87;3.40;;;22.40;61.30;;;;;;5036760;28;20481;-84